createdAt,value
2022-08-20T00:03:28.575Z,94.66
2022-08-20T00:08:32.757Z,94.87
2022-08-20T00:13:46.190Z,95.43
2022-08-20T00:18:50.203Z,95.28
2022-08-20T00:23:55.741Z,96.11
2022-08-20T00:28:59.214Z,96.11
2022-08-20T00:34:02.937Z,96.63
2022-08-20T00:39:06.172Z,96.69
2022-08-20T00:44:12.679Z,96.15
2022-08-20T00:49:23.143Z,96.72
2022-08-20T00:54:36.058Z,96.61
2022-08-20T00:59:43.087Z,96.27
2022-08-20T01:04:51.553Z,95.96
2022-08-20T01:09:59.002Z,96.19
2022-08-20T01:15:31.214Z,96.55
2022-08-20T01:20:40.412Z,95.81
2022-08-20T01:26:00.937Z,95.80
2022-08-20T01:31:09.100Z,96.19
2022-08-20T01:36:13.555Z,96.17
2022-08-20T01:41:30.241Z,95.63
2022-08-20T01:46:43.990Z,94.87
2022-08-20T01:51:48.995Z,94.55
2022-08-20T01:56:57.494Z,95.75
2022-08-20T02:02:03.132Z,93.23
2022-08-20T02:07:09.656Z,93.24
2022-08-20T02:12:14.630Z,93.88
2022-08-20T02:17:28.812Z,94.91
2022-08-20T02:22:57.799Z,94.76
2022-08-20T02:28:09.565Z,95.10
2022-08-20T02:33:14.750Z,95.29
2022-08-20T02:38:19.977Z,94.30
2022-08-20T02:43:23.630Z,95.18
2022-08-20T02:48:28.409Z,95.43
2022-08-20T02:53:40.211Z,95.37
2022-08-20T02:58:47.086Z,95.54
2022-08-20T03:03:50.945Z,95.62
2022-08-20T03:09:09.295Z,95.65
2022-08-20T03:14:44.132Z,95.45
2022-08-20T03:19:48.415Z,95.56
2022-08-20T03:25:00.236Z,95.49
2022-08-20T03:30:18.057Z,95.08
2022-08-20T03:35:26.589Z,95.14
2022-08-20T03:40:34.596Z,94.88
2022-08-20T03:45:40.928Z,94.46
2022-08-20T03:50:45.582Z,94.34
2022-08-20T03:55:54.015Z,94.13
2022-08-20T04:00:58.451Z,94.02
2022-08-20T04:06:02.565Z,93.88
2022-08-20T04:11:06.562Z,91.96
2022-08-20T04:16:13.348Z,89.08
2022-08-20T04:21:18.995Z,86.74
2022-08-20T04:26:22.799Z,83.72
2022-08-20T04:31:34.127Z,85.10
2022-08-20T04:36:38.463Z,85.23
2022-08-20T04:41:43.250Z,84.04
2022-08-20T04:46:47.451Z,82.34
2022-08-20T04:51:50.558Z,81.83
2022-08-20T04:56:54.556Z,81.37
2022-08-20T05:01:57.820Z,81.85
2022-08-20T05:07:00.901Z,81.47
2022-08-20T05:12:04.751Z,81.44
2022-08-20T05:17:09.018Z,80.83
2022-08-20T05:22:12.524Z,80.33
2022-08-20T05:27:24.983Z,78.92
2022-08-20T05:32:30.458Z,77.82
2022-08-20T05:37:36.172Z,76.43
2022-08-20T05:42:39.365Z,73.00
2022-08-20T05:47:44.835Z,69.17
2022-08-20T05:52:48.560Z,67.90
2022-08-20T05:57:58.620Z,66.61
2022-08-20T06:03:20.532Z,63.19
2022-08-20T06:08:25.461Z,61.24
2022-08-20T06:13:29.372Z,60.74
2022-08-20T06:18:33.327Z,60.40
2022-08-20T06:23:54.356Z,56.74
2022-08-20T06:29:07.141Z,46.64
2022-08-20T06:34:10.721Z,40.57
2022-08-20T06:39:15.215Z,40.68
2022-08-20T06:44:20.145Z,39.65
2022-08-20T06:49:24.075Z,39.42
2022-08-20T06:54:29.375Z,39.29
2022-08-20T06:59:33.021Z,39.05
2022-08-20T07:04:38.065Z,37.00
2022-08-20T07:09:41.378Z,36.36
2022-08-20T07:14:44.692Z,35.82
2022-08-20T07:19:47.905Z,36.05
2022-08-20T07:24:51.792Z,36.86
2022-08-20T07:30:15.207Z,35.61
2022-08-20T07:35:20.153Z,36.40
2022-08-20T07:40:29.905Z,35.86
2022-08-20T07:45:33.021Z,33.90
2022-08-20T07:50:37.170Z,35.30
2022-08-20T07:55:41.868Z,34.25
2022-08-20T08:01:01.271Z,33.79
2022-08-20T08:06:05.442Z,34.57
2022-08-20T08:11:09.221Z,30.86
2022-08-20T08:16:36.687Z,31.40
2022-08-20T08:21:39.507Z,31.38
2022-08-20T08:26:42.880Z,29.54
2022-08-20T08:31:46.558Z,27.10
2022-08-20T08:36:52.730Z,31.33
2022-08-20T08:41:59.410Z,33.25
2022-08-20T08:47:22.491Z,32.93
2022-08-20T08:52:30.272Z,30.34
2022-08-20T08:57:38.059Z,33.07
2022-08-20T09:08:37.344Z,32.23
2022-08-20T09:13:43.400Z,30.86
2022-08-20T09:18:47.806Z,30.45
2022-08-20T09:23:51.308Z,31.33
2022-08-20T09:28:54.402Z,35.35
2022-08-20T09:33:58.269Z,30.10
2022-08-20T09:39:02.918Z,33.76
2022-08-20T09:44:06.978Z,33.76
2022-08-20T09:49:10.727Z,33.57
2022-08-20T09:54:14.112Z,30.58
2022-08-20T09:59:17.607Z,30.92
2022-08-20T10:04:21.593Z,33.10
2022-08-20T10:09:25.477Z,34.62
2022-08-20T10:14:29.059Z,33.30
2022-08-20T10:19:33.291Z,33.83
2022-08-20T10:24:36.945Z,30.24
2022-08-20T10:29:43.022Z,30.46
2022-08-20T10:34:49.977Z,33.22
2022-08-20T10:39:54.423Z,31.62
2022-08-20T10:44:57.922Z,28.25
2022-08-20T10:50:04.107Z,28.16
2022-08-20T10:55:09.258Z,30.62
2022-08-20T11:00:18.083Z,32.25
2022-08-20T11:05:21.246Z,29.92
2022-08-20T11:10:27.980Z,32.25
2022-08-20T11:15:39.435Z,33.29
2022-08-20T11:20:42.481Z,32.46
2022-08-20T11:25:46.312Z,32.25
2022-08-20T11:30:50.443Z,30.89
2022-08-20T11:35:53.584Z,30.04
2022-08-20T11:40:57.039Z,34.20
2022-08-20T11:46:00.104Z,34.59
2022-08-20T11:51:04.157Z,35.31
2022-08-20T11:56:07.972Z,38.00
2022-08-20T12:01:17.254Z,37.65
2022-08-20T12:06:20.723Z,37.68
2022-08-20T12:11:24.151Z,39.57
2022-08-20T12:16:27.856Z,39.40
2022-08-20T12:21:32.523Z,40.10
2022-08-20T12:26:36.473Z,40.39
2022-08-20T12:31:39.838Z,40.59
2022-08-20T12:36:44.773Z,41.30
2022-08-20T12:41:48.688Z,43.52
2022-08-20T12:46:51.842Z,42.67
2022-08-20T12:51:55.516Z,44.22
2022-08-20T12:56:58.752Z,46.58
2022-08-20T13:02:14.142Z,45.67
2022-08-20T13:07:23.768Z,44.75
2022-08-20T13:12:26.792Z,42.35
2022-08-20T13:17:38.460Z,39.41
2022-08-20T13:22:42.890Z,39.53
2022-08-20T13:27:46.139Z,42.54
2022-08-20T13:32:49.156Z,44.48
2022-08-20T13:37:52.854Z,44.32
2022-08-20T13:42:56.978Z,46.42
2022-08-20T13:48:00.180Z,46.72
2022-08-20T13:53:03.869Z,48.70
2022-08-20T13:58:08.412Z,46.30
2022-08-20T14:03:12.502Z,47.08
2022-08-20T14:08:20.834Z,46.44
2022-08-20T14:13:26.217Z,49.32
2022-08-20T14:18:31.018Z,46.94
2022-08-20T14:23:36.888Z,48.17
2022-08-20T14:28:40.033Z,49.06
2022-08-20T14:33:44.772Z,48.66
2022-08-20T14:38:48.411Z,49.72
2022-08-20T14:43:51.831Z,54.17
2022-08-20T14:48:54.793Z,51.18
2022-08-20T14:53:57.844Z,50.14
2022-08-20T14:59:01.478Z,52.55
2022-08-20T15:04:04.616Z,53.33
2022-08-20T15:09:07.912Z,53.08
2022-08-20T15:14:11.769Z,54.88
2022-08-20T15:19:18.545Z,56.26
2022-08-20T15:24:23.017Z,56.28
2022-08-20T15:29:26.935Z,57.54
2022-08-20T15:34:30.120Z,58.05
2022-08-20T15:39:33.592Z,58.09
2022-08-20T15:44:36.725Z,59.00
2022-08-20T15:49:40.209Z,58.03
2022-08-20T15:54:45.364Z,59.75
2022-08-20T16:00:06.918Z,57.48
2022-08-20T16:05:23.669Z,56.67
2022-08-20T16:10:29.161Z,57.56
2022-08-20T16:15:33.530Z,57.61
2022-08-20T16:20:42.704Z,59.11
2022-08-20T16:26:10.457Z,58.63
2022-08-20T16:31:21.319Z,60.18
2022-08-20T16:36:44.133Z,59.67
2022-08-20T16:41:53.995Z,60.54
2022-08-20T16:47:15.083Z,62.53
2022-08-20T16:52:19.418Z,64.06
2022-08-20T16:57:23.808Z,64.53
2022-08-20T17:02:27.993Z,65.22
2022-08-20T17:07:46.160Z,65.54
2022-08-20T17:12:56.628Z,66.52
2022-08-20T17:18:21.243Z,66.86
2022-08-20T17:23:25.068Z,67.14
2022-08-20T17:28:33.270Z,67.17
2022-08-20T17:33:40.075Z,66.97
2022-08-20T17:38:51.050Z,66.46
2022-08-20T17:43:59.458Z,66.74
2022-08-20T17:49:08.129Z,66.65
2022-08-20T17:54:20.664Z,67.16
2022-08-20T18:00:01.260Z,67.33
2022-08-20T18:05:00.312Z,68.81
2022-08-20T18:10:19.069Z,71.63
2022-08-20T18:15:50.858Z,71.40
2022-08-20T18:21:14.646Z,73.11
2022-08-20T18:26:26.747Z,74.52
2022-08-20T18:31:34.397Z,75.53
2022-08-20T18:36:38.071Z,75.37
2022-08-20T18:41:57.033Z,75.87
2022-08-20T18:47:02.858Z,77.56
2022-08-20T18:52:19.193Z,79.43
2022-08-20T18:57:34.051Z,80.35
2022-08-20T19:03:10.448Z,81.96
2022-08-20T19:08:21.045Z,82.01
2022-08-20T19:14:09.275Z,82.57
2022-08-20T19:19:24.086Z,83.29
2022-08-20T19:24:30.902Z,83.72
2022-08-20T19:29:47.787Z,83.97
2022-08-20T19:34:54.162Z,84.06
2022-08-20T19:39:58.015Z,84.24
2022-08-20T19:45:09.920Z,84.27
2022-08-20T19:50:29.615Z,85.13
2022-08-20T19:55:36.371Z,85.48
2022-08-20T20:00:49.829Z,86.68
2022-08-20T20:06:16.102Z,87.79
2022-08-20T20:11:31.309Z,87.33
2022-08-20T20:16:35.637Z,87.29
2022-08-20T20:21:49.528Z,88.29
2022-08-20T20:26:53.633Z,89.33
2022-08-20T20:32:00.086Z,89.12
2022-08-20T20:37:49.785Z,88.82
2022-08-20T20:43:09.000Z,89.76
2022-08-20T20:48:20.203Z,89.85
2022-08-20T20:53:53.111Z,90.45
2022-08-20T20:59:01.326Z,90.97
2022-08-20T21:04:08.628Z,91.55
2022-08-20T21:09:12.712Z,91.42
2022-08-20T21:14:16.488Z,91.86
2022-08-20T21:19:22.092Z,92.00
2022-08-20T21:24:25.889Z,91.41
2022-08-20T21:29:32.872Z,91.92
2022-08-20T21:34:37.193Z,91.48
2022-08-20T21:39:40.563Z,91.42
2022-08-20T21:44:46.198Z,91.20
2022-08-20T21:49:53.739Z,90.96
2022-08-20T21:54:57.018Z,91.37
2022-08-20T22:00:02.659Z,91.49
2022-08-20T22:05:08.213Z,91.79
2022-08-20T22:10:11.858Z,91.85
2022-08-20T22:15:14.817Z,92.03
2022-08-20T22:20:18.622Z,92.28
2022-08-20T22:25:22.211Z,92.71
2022-08-20T22:30:26.754Z,93.04
2022-08-20T22:35:31.192Z,93.76
2022-08-20T22:40:34.420Z,93.77
2022-08-20T22:45:38.588Z,93.69
2022-08-20T22:50:41.794Z,93.43
2022-08-20T22:55:46.092Z,92.96
2022-08-20T23:00:50.861Z,93.17
2022-08-20T23:05:57.230Z,93.24
2022-08-20T23:11:00.230Z,92.76
2022-08-20T23:16:06.653Z,91.47
2022-08-20T23:21:09.732Z,91.39
2022-08-20T23:26:19.860Z,90.78
2022-08-20T23:31:23.238Z,90.76
2022-08-20T23:36:26.931Z,90.11
2022-08-20T23:41:30.085Z,90.28
2022-08-20T23:46:37.187Z,90.87
2022-08-20T23:51:41.368Z,90.25
2022-08-20T23:56:44.474Z,90.26
